createdAt,value
2023-04-02T00:01:39.639Z,17.90
2023-04-02T00:04:38.046Z,17.87
2023-04-02T00:07:31.300Z,17.97
2023-04-02T00:10:35.708Z,17.90
2023-04-02T00:13:12.027Z,17.88
2023-04-02T00:16:00.014Z,17.89
2023-04-02T00:18:37.047Z,17.76
2023-04-02T00:21:30.989Z,17.86
2023-04-02T00:24:22.188Z,17.69
2023-04-02T00:26:55.701Z,17.75
2023-04-02T00:29:28.365Z,17.78
2023-04-02T00:32:13.973Z,17.81
2023-04-02T00:35:00.561Z,17.78
2023-04-02T00:37:42.074Z,17.77
2023-04-02T00:40:31.999Z,17.74
2023-04-02T00:43:20.897Z,17.81
2023-04-02T00:46:18.494Z,17.63
2023-04-02T00:49:22.795Z,17.77
2023-04-02T00:52:23.274Z,17.79
2023-04-02T00:55:21.462Z,17.70
2023-04-02T00:58:01.104Z,17.69
2023-04-02T01:00:36.162Z,17.48
2023-04-02T01:03:36.590Z,17.74
2023-04-02T01:06:24.017Z,17.53
2023-04-02T01:10:17.528Z,17.69
2023-04-02T01:13:19.968Z,17.67
2023-04-02T01:16:19.777Z,17.55
2023-04-02T01:19:58.463Z,17.62
2023-04-02T01:26:14.179Z,17.66
2023-04-02T01:29:07.800Z,17.64
2023-04-02T01:31:42.422Z,17.54
2023-04-02T01:34:21.957Z,17.53
2023-04-02T01:37:15.331Z,17.54
2023-04-02T01:40:26.431Z,17.54
2023-04-02T01:43:47.699Z,17.47
2023-04-02T01:46:38.356Z,17.49
2023-04-02T01:49:22.680Z,17.46
2023-04-02T01:51:58.780Z,17.67
2023-04-02T01:54:35.845Z,17.46
2023-04-02T01:57:09.407Z,17.45
2023-04-02T01:59:43.648Z,17.42
2023-04-02T02:02:25.030Z,17.62
2023-04-02T02:07:58.572Z,17.28
2023-04-02T02:10:41.193Z,17.38
2023-04-02T02:13:16.792Z,17.28
2023-04-02T02:15:50.452Z,17.33
2023-04-02T02:18:24.173Z,17.29
2023-04-02T02:21:31.561Z,17.29
2023-04-02T02:27:27.205Z,17.38
2023-04-02T02:30:15.846Z,17.34
2023-04-02T02:33:05.184Z,17.30
2023-04-02T02:39:21.116Z,17.30
2023-04-02T02:42:21.146Z,17.36
2023-04-02T02:44:57.177Z,17.22
2023-04-02T02:47:47.027Z,17.15
2023-04-02T02:53:24.182Z,17.24
2023-04-02T02:58:50.244Z,17.22
2023-04-02T03:01:32.163Z,17.17
2023-04-02T03:04:05.282Z,17.16
2023-04-02T03:06:58.626Z,17.14
2023-04-02T03:09:58.669Z,17.18
2023-04-02T03:12:49.201Z,17.19
2023-04-02T03:15:36.755Z,17.11
2023-04-02T03:18:25.994Z,17.09
2023-04-02T03:21:15.383Z,17.04
2023-04-02T03:24:05.765Z,17.07
2023-04-02T03:27:04.655Z,17.10
2023-04-02T03:30:05.554Z,17.09
2023-04-02T03:32:43.683Z,17.07
2023-04-02T03:35:40.398Z,17.07
2023-04-02T03:38:47.125Z,17.15
2023-04-02T03:41:27.094Z,17.04
2023-04-02T03:44:07.745Z,17.02
2023-04-02T03:46:58.805Z,17.03
2023-04-02T03:49:46.770Z,17.01
2023-04-02T03:52:27.581Z,16.99
2023-04-02T03:55:10.281Z,16.93
2023-04-02T03:58:04.347Z,17.05
2023-04-02T04:00:51.274Z,16.95
2023-04-02T04:03:43.375Z,16.99
2023-04-02T04:06:25.078Z,16.96
2023-04-02T04:09:24.650Z,16.95
2023-04-02T04:12:22.327Z,16.92
2023-04-02T04:15:22.560Z,16.92
2023-04-02T04:18:10.547Z,16.93
2023-04-02T04:20:58.722Z,16.89
2023-04-02T04:26:53.450Z,16.89
2023-04-02T04:30:10.630Z,16.91
2023-04-02T04:33:15.398Z,16.89
2023-04-02T04:35:59.899Z,16.92
2023-04-02T04:38:49.254Z,17.09
2023-04-02T04:44:50.834Z,16.88
2023-04-02T04:47:40.078Z,16.87
2023-04-02T04:50:38.097Z,16.84
2023-04-02T04:53:21.160Z,16.79
2023-04-02T04:56:15.958Z,16.77
2023-04-02T04:58:55.151Z,16.77
2023-04-02T05:01:40.695Z,16.72
2023-04-02T05:04:39.186Z,16.78
2023-04-02T05:07:56.790Z,16.73
2023-04-02T05:10:55.355Z,16.78
2023-04-02T05:13:54.800Z,16.79
2023-04-02T05:17:21.441Z,16.72
2023-04-02T05:20:16.562Z,16.66
2023-04-02T05:23:10.806Z,16.66
2023-04-02T05:26:14.838Z,16.74
2023-04-02T05:28:54.881Z,16.65
2023-04-02T05:31:55.421Z,16.71
2023-04-02T05:34:37.458Z,16.66
2023-04-02T05:37:21.899Z,16.69
2023-04-02T05:40:06.937Z,16.71
2023-04-02T05:42:47.725Z,16.68
2023-04-02T05:45:46.135Z,16.64
2023-04-02T05:48:40.378Z,16.82
2023-04-02T05:51:44.484Z,16.84
2023-04-02T05:54:27.342Z,16.89
2023-04-02T05:57:12.141Z,16.94
2023-04-02T05:59:54.092Z,16.99
2023-04-02T06:02:45.057Z,17.09
2023-04-02T06:05:26.438Z,17.09
2023-04-02T06:11:24.048Z,17.30
2023-04-02T06:14:03.095Z,17.16
2023-04-02T06:16:46.371Z,17.37
2023-04-02T06:22:45.292Z,17.47
2023-04-02T06:25:46.790Z,17.57
2023-04-02T06:28:38.083Z,17.55
2023-04-02T06:31:42.185Z,17.63
2023-04-02T06:34:38.354Z,17.57
2023-04-02T06:37:54.428Z,17.80
2023-04-02T06:41:00.404Z,17.84
2023-04-02T06:44:00.098Z,17.84
2023-04-02T06:46:42.087Z,17.87
2023-04-02T06:49:49.099Z,17.92
2023-04-02T06:52:35.121Z,17.85
2023-04-02T06:55:45.094Z,17.97
2023-04-02T06:58:19.916Z,17.98
2023-04-02T07:03:54.164Z,18.01
2023-04-02T07:06:27.077Z,17.84
2023-04-02T07:09:08.390Z,18.06
2023-04-02T07:11:44.079Z,18.11
2023-04-02T07:14:16.597Z,18.14
2023-04-02T07:16:49.172Z,18.16
2023-04-02T07:19:23.111Z,18.07
2023-04-02T07:22:13.388Z,18.06
2023-04-02T07:25:14.756Z,18.18
2023-04-02T07:27:47.785Z,18.04
2023-04-02T07:30:20.504Z,18.10
2023-04-02T07:33:05.728Z,18.01
2023-04-02T07:35:38.561Z,18.14
2023-04-02T07:38:21.070Z,18.03
2023-04-02T07:46:38.175Z,17.91
2023-04-02T07:49:11.022Z,18.09
2023-04-02T07:51:51.468Z,18.08
2023-04-02T07:54:39.805Z,18.02
2023-04-02T07:57:12.372Z,18.01
2023-04-02T07:59:46.754Z,17.92
2023-04-02T08:02:21.997Z,17.95
2023-04-02T08:04:56.216Z,18.01
2023-04-02T08:07:28.795Z,18.21
2023-04-02T08:10:02.692Z,17.99
2023-04-02T08:12:37.485Z,17.98
2023-04-02T08:15:15.088Z,17.89
2023-04-02T08:17:48.321Z,17.93
2023-04-02T08:20:22.837Z,17.91
2023-04-02T08:22:56.287Z,17.86
2023-04-02T08:25:28.952Z,17.88
2023-04-02T08:28:02.328Z,17.84
2023-04-02T08:30:35.056Z,17.87
2023-04-02T08:33:07.831Z,17.81
2023-04-02T08:35:40.698Z,17.77
2023-04-02T08:38:21.910Z,17.85
2023-04-02T08:41:01.343Z,17.81
2023-04-02T08:44:01.118Z,17.82
2023-04-02T08:46:40.916Z,17.77
2023-04-02T08:49:22.942Z,17.75
2023-04-02T08:51:56.044Z,17.75
2023-04-02T08:54:46.060Z,17.68
2023-04-02T08:57:47.322Z,17.80
2023-04-02T09:00:38.133Z,17.75
2023-04-02T09:03:20.676Z,17.73
2023-04-02T09:05:53.893Z,17.66
2023-04-02T09:08:28.069Z,17.69
2023-04-02T09:11:32.356Z,17.90
2023-04-02T09:14:24.694Z,17.63
2023-04-02T09:17:03.703Z,17.65
2023-04-02T09:19:47.908Z,17.67
2023-04-02T09:22:31.712Z,17.67
2023-04-02T09:25:14.265Z,17.58
2023-04-02T09:27:50.502Z,17.60
2023-04-02T09:30:33.250Z,17.66
2023-04-02T09:33:09.981Z,17.62
2023-04-02T09:35:58.128Z,17.74
2023-04-02T09:38:32.739Z,17.68
2023-04-02T09:41:20.201Z,17.81
2023-04-02T09:44:32.296Z,17.87
2023-04-02T09:47:24.903Z,17.79
2023-04-02T09:50:22.039Z,17.94
2023-04-02T09:52:55.150Z,17.86
2023-04-02T09:55:31.287Z,17.91
2023-04-02T09:58:11.526Z,17.96
2023-04-02T10:00:52.960Z,18.02
2023-04-02T10:03:28.155Z,18.05
2023-04-02T10:06:06.517Z,18.08
2023-04-02T10:08:43.920Z,18.11
2023-04-02T10:11:33.581Z,18.11
2023-04-02T10:14:26.775Z,18.20
2023-04-02T10:17:17.584Z,18.24
2023-04-02T10:20:20.304Z,18.29
2023-04-02T10:22:52.866Z,18.28
2023-04-02T10:25:39.671Z,18.27
2023-04-02T10:29:00.810Z,18.40
2023-04-02T10:31:56.421Z,18.36
2023-04-02T10:35:12.890Z,18.42
2023-04-02T10:38:23.564Z,18.45
2023-04-02T10:41:07.085Z,18.46
2023-04-02T10:43:57.854Z,18.49
2023-04-02T10:46:44.804Z,18.50
2023-04-02T10:50:01.839Z,18.58
2023-04-02T10:52:54.102Z,18.49
2023-04-02T10:55:55.527Z,18.44
2023-04-02T10:58:35.855Z,18.49
2023-04-02T11:01:18.088Z,18.46
2023-04-02T11:04:05.984Z,18.50
2023-04-02T11:07:00.828Z,18.51
2023-04-02T11:09:55.747Z,18.53
2023-04-02T11:12:50.612Z,18.56
2023-04-02T11:15:23.746Z,18.74
2023-04-02T11:17:57.982Z,18.57
2023-04-02T11:20:51.773Z,18.62
2023-04-02T11:23:30.818Z,18.53
2023-04-02T11:26:43.566Z,18.61
2023-04-02T11:29:22.752Z,18.53
2023-04-02T11:32:27.658Z,18.62
2023-04-02T11:35:32.003Z,18.55
2023-04-02T11:38:10.493Z,18.56
2023-04-02T11:40:45.361Z,18.48
2023-04-02T11:43:32.867Z,18.56
2023-04-02T11:46:20.701Z,18.56
2023-04-02T11:48:55.162Z,18.47
2023-04-02T11:51:33.649Z,18.47
2023-04-02T11:54:27.945Z,18.50
2023-04-02T11:57:24.381Z,18.42
2023-04-02T12:00:37.890Z,18.49
2023-04-02T12:03:58.887Z,18.48
2023-04-02T12:06:47.426Z,18.40
2023-04-02T12:09:30.350Z,18.39
2023-04-02T12:12:43.837Z,18.37
2023-04-02T12:15:45.212Z,18.37
2023-04-02T12:18:24.146Z,18.31
2023-04-02T12:20:57.611Z,18.29
2023-04-02T12:23:35.344Z,18.26
2023-04-02T12:26:26.646Z,18.31
2023-04-02T12:29:27.880Z,18.27
2023-04-02T12:32:01.567Z,18.19
2023-04-02T12:34:35.032Z,18.22
2023-04-02T12:37:39.506Z,18.21
2023-04-02T12:40:18.366Z,18.20
2023-04-02T12:42:51.488Z,18.15
2023-04-02T12:45:34.305Z,18.16
2023-04-02T12:48:09.751Z,18.12
2023-04-02T12:50:42.570Z,18.11
2023-04-02T12:53:42.305Z,18.14
2023-04-02T12:56:23.456Z,18.12
2023-04-02T12:58:59.760Z,18.03
2023-04-02T13:01:33.976Z,18.06
2023-04-02T13:04:12.569Z,17.97
2023-04-02T13:06:52.192Z,18.04
2023-04-02T13:09:45.876Z,18.05
2023-04-02T13:12:40.837Z,18.10
2023-04-02T13:15:36.591Z,18.07
2023-04-02T13:18:22.615Z,18.02
2023-04-02T13:21:07.917Z,17.97
2023-04-02T13:23:41.220Z,17.98
2023-04-02T13:26:27.767Z,18.01
2023-04-02T13:29:17.720Z,18.01
2023-04-02T13:31:52.514Z,17.99
2023-04-02T13:34:40.686Z,18.06
2023-04-02T13:37:16.147Z,17.89
2023-04-02T13:39:56.849Z,17.90
2023-04-02T13:42:29.568Z,17.86
2023-04-02T13:45:02.322Z,17.87
2023-04-02T13:47:34.966Z,17.92
2023-04-02T13:50:16.917Z,17.89
2023-04-02T13:52:52.093Z,17.93
2023-04-02T13:55:30.599Z,17.91
2023-04-02T13:58:04.847Z,17.95
2023-04-02T14:00:38.188Z,17.94
2023-04-02T14:03:21.802Z,17.93
2023-04-02T14:06:24.798Z,17.98
2023-04-02T14:09:20.737Z,17.93
2023-04-02T14:12:03.384Z,17.94
2023-04-02T14:15:16.355Z,17.89
2023-04-02T14:18:19.128Z,17.94
2023-04-02T14:21:36.144Z,17.93
2023-04-02T14:24:43.790Z,17.89
2023-04-02T14:28:02.047Z,17.86
2023-04-02T14:30:53.056Z,17.84
2023-04-02T14:33:42.592Z,17.84
2023-04-02T14:36:29.571Z,17.82
2023-04-02T14:40:05.985Z,17.88
2023-04-02T14:42:59.200Z,17.82
2023-04-02T14:46:03.979Z,17.84
2023-04-02T14:48:57.159Z,17.88
2023-04-02T14:51:47.114Z,17.79
2023-04-02T14:54:50.072Z,17.83
2023-04-02T14:57:30.565Z,17.79
2023-04-02T15:00:34.463Z,17.78
2023-04-02T15:03:21.338Z,17.75
2023-04-02T15:06:02.977Z,17.69
2023-04-02T15:08:58.568Z,17.78
2023-04-02T15:11:50.984Z,17.79
2023-04-02T15:14:59.074Z,17.85
2023-04-02T15:17:32.034Z,17.74
2023-04-02T15:20:18.017Z,17.78
2023-04-02T15:23:13.499Z,17.77
2023-04-02T15:26:02.274Z,17.72
2023-04-02T15:28:48.498Z,17.69
2023-04-02T15:31:28.073Z,17.70
2023-04-02T15:34:34.778Z,17.77
2023-04-02T15:37:32.229Z,17.77
2023-04-02T15:40:38.971Z,17.72
2023-04-02T15:43:31.381Z,17.66
2023-04-02T15:46:38.692Z,17.77
2023-04-02T15:49:33.739Z,17.71
2023-04-02T15:52:33.348Z,17.72
2023-04-02T15:55:22.835Z,17.68
2023-04-02T15:58:36.877Z,17.75
2023-04-02T16:01:45.899Z,17.70
2023-04-02T16:05:13.467Z,17.73
2023-04-02T16:08:13.435Z,17.59
2023-04-02T16:10:46.358Z,17.52
2023-04-02T16:13:24.176Z,17.58
2023-04-02T16:16:19.923Z,17.58
2023-04-02T16:19:25.994Z,17.65
2023-04-02T16:22:17.357Z,17.64
2023-04-02T16:25:19.471Z,17.57
2023-04-02T16:28:15.390Z,17.49
2023-04-02T16:31:54.482Z,17.58
2023-04-02T16:35:35.231Z,17.54
2023-04-02T16:38:43.766Z,17.51
2023-04-02T16:41:37.361Z,17.50
2023-04-02T16:44:32.146Z,17.54
2023-04-02T16:47:28.063Z,17.55
2023-04-02T16:50:18.685Z,17.48
2023-04-02T16:53:25.975Z,17.49
2023-04-02T16:56:26.397Z,17.47
2023-04-02T16:59:08.086Z,17.45
2023-04-02T17:02:18.579Z,17.42
2023-04-02T17:05:15.410Z,17.47
2023-04-02T17:08:02.959Z,17.42
2023-04-02T17:11:00.822Z,17.47
2023-04-02T17:14:12.340Z,17.40
2023-04-02T17:16:51.723Z,17.38
2023-04-02T17:19:28.839Z,17.30
2023-04-02T17:22:05.389Z,17.35
2023-04-02T17:24:59.991Z,17.43
2023-04-02T17:27:39.574Z,17.37
2023-04-02T17:30:40.524Z,17.43
2023-04-02T17:33:16.340Z,17.44
2023-04-02T17:36:15.094Z,17.49
2023-04-02T17:38:54.160Z,17.48
2023-04-02T17:41:49.778Z,17.61
2023-04-02T17:44:48.884Z,17.63
2023-04-02T17:47:29.414Z,17.64
2023-04-02T17:51:05.906Z,17.77
2023-04-02T17:54:12.906Z,17.76
2023-04-02T17:57:01.297Z,17.80
2023-04-02T18:00:20.697Z,17.90
2023-04-02T18:03:26.787Z,17.89
2023-04-02T18:06:19.327Z,17.99
2023-04-02T18:09:14.384Z,17.96
2023-04-02T18:12:05.341Z,17.99
2023-04-02T18:15:38.699Z,18.06
2023-04-02T18:18:37.545Z,18.03
2023-04-02T18:21:33.120Z,18.05
2023-04-02T18:24:24.671Z,18.05
2023-04-02T18:27:41.153Z,18.10
2023-04-02T18:30:21.341Z,18.07
2023-04-02T18:33:06.278Z,18.06
2023-04-02T18:35:57.400Z,18.07
2023-04-02T18:38:53.874Z,18.06
2023-04-02T18:41:42.147Z,18.08
2023-04-02T18:44:28.893Z,18.03
2023-04-02T18:47:47.108Z,18.02
2023-04-02T18:50:35.148Z,18.06
2023-04-02T18:53:15.566Z,18.01
2023-04-02T18:56:06.134Z,17.98
2023-04-02T18:58:57.008Z,17.97
2023-04-02T19:01:39.976Z,17.97
2023-04-02T19:04:26.163Z,17.95
2023-04-02T19:07:14.287Z,17.95
2023-04-02T19:09:51.128Z,17.91
2023-04-02T19:12:24.312Z,17.89
2023-04-02T19:15:00.372Z,17.78
2023-04-02T19:17:45.501Z,17.84
2023-04-02T19:20:31.131Z,17.87
2023-04-02T19:23:27.845Z,17.89
2023-04-02T19:26:08.791Z,17.81
2023-04-02T19:29:02.321Z,17.79
2023-04-02T19:32:01.842Z,17.83
2023-04-02T19:34:58.116Z,17.83
2023-04-02T19:37:44.195Z,17.75
2023-04-02T19:40:32.332Z,17.74
2023-04-02T19:43:06.862Z,17.71
2023-04-02T19:45:43.273Z,17.67
2023-04-02T19:48:22.440Z,17.67
2023-04-02T19:50:55.044Z,17.60
2023-04-02T19:53:27.775Z,17.52
2023-04-02T19:56:00.654Z,17.63
2023-04-02T19:58:37.608Z,17.61
2023-04-02T20:01:10.908Z,17.58
2023-04-02T20:03:43.787Z,17.52
2023-04-02T20:06:16.485Z,17.57
2023-04-02T20:08:49.152Z,17.54
2023-04-02T20:11:21.849Z,17.53
2023-04-02T20:13:56.581Z,17.53
2023-04-02T20:16:29.599Z,17.51
2023-04-02T20:19:02.634Z,17.50
2023-04-02T20:21:38.510Z,17.48
2023-04-02T20:24:11.286Z,17.43
2023-04-02T20:26:43.878Z,17.45
2023-04-02T20:29:16.472Z,17.43
2023-04-02T20:31:48.972Z,17.42
2023-04-02T20:34:21.812Z,17.41
2023-04-02T20:36:54.539Z,17.38
2023-04-02T20:39:29.517Z,17.36
2023-04-02T20:42:03.392Z,17.35
2023-04-02T20:44:36.146Z,17.34
2023-04-02T20:47:08.946Z,17.30
2023-04-02T20:49:41.887Z,17.27
2023-04-02T20:52:14.692Z,17.22
2023-04-02T20:54:47.433Z,17.21
2023-04-02T20:57:21.925Z,17.23
2023-04-02T20:59:54.604Z,17.21
2023-04-02T21:02:27.519Z,17.21
2023-04-02T21:05:00.534Z,17.15
2023-04-02T21:07:33.341Z,17.15
2023-04-02T21:10:08.934Z,17.16
2023-04-02T21:12:41.813Z,17.15
2023-04-02T21:15:14.781Z,17.15
2023-04-02T21:17:47.763Z,17.15
2023-04-02T21:20:21.741Z,17.17
2023-04-02T21:22:58.888Z,17.21
2023-04-02T21:25:31.419Z,17.24
2023-04-02T21:28:06.814Z,17.27
2023-04-02T21:30:39.399Z,17.29
2023-04-02T21:33:11.972Z,17.36
2023-04-02T21:35:44.551Z,17.32
2023-04-02T21:38:17.299Z,17.37
2023-04-02T21:40:49.794Z,17.42
2023-04-02T21:43:22.361Z,17.41
2023-04-02T21:45:59.058Z,17.46
2023-04-02T21:48:35.602Z,17.44
2023-04-02T21:51:22.634Z,17.46
2023-04-02T21:53:56.012Z,17.53
2023-04-02T21:56:33.254Z,17.57
2023-04-02T21:59:08.516Z,17.56
2023-04-02T22:01:49.659Z,17.57
2023-04-02T22:04:25.859Z,17.50
2023-04-02T22:06:58.726Z,17.57
2023-04-02T22:09:34.272Z,17.57
2023-04-02T22:12:08.154Z,17.48
2023-04-02T22:14:41.269Z,17.56
2023-04-02T22:17:14.368Z,17.37
2023-04-02T22:19:48.388Z,17.38
2023-04-02T22:22:21.156Z,17.41
2023-04-02T22:24:53.803Z,17.55
2023-04-02T22:27:26.431Z,17.53
2023-04-02T22:29:58.999Z,17.53
2023-04-02T22:32:32.660Z,17.43
2023-04-02T22:35:06.902Z,17.52
2023-04-02T22:37:41.013Z,17.70
2023-04-02T22:40:15.558Z,17.52
2023-04-02T22:42:49.061Z,17.49
2023-04-02T22:45:23.330Z,17.47
2023-04-02T22:47:56.096Z,17.67
2023-04-02T22:50:30.987Z,17.48
2023-04-02T22:53:04.135Z,17.45
2023-04-02T22:55:36.727Z,17.43
2023-04-02T22:58:16.780Z,17.23
2023-04-02T23:01:06.480Z,17.19
2023-04-02T23:03:39.587Z,17.39
2023-04-02T23:06:15.774Z,17.37
2023-04-02T23:08:48.564Z,17.32
2023-04-02T23:11:26.069Z,17.30
2023-04-02T23:14:00.257Z,17.32
2023-04-02T23:16:32.993Z,17.53
2023-04-02T23:19:06.085Z,17.27
2023-04-02T23:21:38.647Z,17.29
2023-04-02T23:24:12.585Z,17.15
2023-04-02T23:26:45.183Z,17.20
2023-04-02T23:29:17.965Z,17.24
2023-04-02T23:31:50.884Z,17.22
2023-04-02T23:34:23.807Z,17.21
2023-04-02T23:36:56.366Z,17.17
2023-04-02T23:39:29.575Z,17.17
2023-04-02T23:42:02.283Z,17.16
2023-04-02T23:44:35.037Z,17.03
2023-04-02T23:47:09.071Z,17.11
2023-04-02T23:49:47.489Z,17.11
2023-04-02T23:52:20.258Z,17.01
2023-04-02T23:54:52.831Z,17.07
2023-04-02T23:57:25.451Z,16.98
2023-04-02T23:59:58.065Z,16.99
